sensor_id;sensor_type;location;lat;lon;timestamp;temperature;humidity
65404;DHT22;52014;52.088;5.096;2023-05-20T00:01:51;14.00;99.90
65404;DHT22;52014;52.088;5.096;2023-05-20T00:04:17;14.00;99.90
65404;DHT22;52014;52.088;5.096;2023-05-20T00:06:43;14.00;99.90
65404;DHT22;52014;52.088;5.096;2023-05-20T00:09:08;13.90;99.90
65404;DHT22;52014;52.088;5.096;2023-05-20T00:11:35;13.90;99.90
65404;DHT22;52014;52.088;5.096;2023-05-20T00:14:00;13.90;99.90
65404;DHT22;52014;52.088;5.096;2023-05-20T00:16:26;13.80;99.90
65404;DHT22;52014;52.088;5.096;2023-05-20T00:18:51;13.80;99.90
65404;DHT22;52014;52.088;5.096;2023-05-20T00:21:17;13.80;99.90
65404;DHT22;52014;52.088;5.096;2023-05-20T00:23:42;13.80;99.90
65404;DHT22;52014;52.088;5.096;2023-05-20T00:26:08;13.80;99.90
65404;DHT22;52014;52.088;5.096;2023-05-20T00:28:35;13.80;99.90
65404;DHT22;52014;52.088;5.096;2023-05-20T00:31:00;13.80;99.90
65404;DHT22;52014;52.088;5.096;2023-05-20T00:33:26;13.70;99.90
65404;DHT22;52014;52.088;5.096;2023-05-20T00:35:51;13.70;99.90
65404;DHT22;52014;52.088;5.096;2023-05-20T00:38:17;13.70;99.90
65404;DHT22;52014;52.088;5.096;2023-05-20T00:40:42;13.70;99.90
65404;DHT22;52014;52.088;5.096;2023-05-20T00:43:08;13.70;99.90
65404;DHT22;52014;52.088;5.096;2023-05-20T00:45:33;13.70;99.90
65404;DHT22;52014;52.088;5.096;2023-05-20T00:47:59;13.70;99.90
65404;DHT22;52014;52.088;5.096;2023-05-20T00:50:26;13.60;99.90
65404;DHT22;52014;52.088;5.096;2023-05-20T00:52:52;13.70;99.90
65404;DHT22;52014;52.088;5.096;2023-05-20T00:55:19;13.60;99.90
65404;DHT22;52014;52.088;5.096;2023-05-20T00:57:45;13.60;99.90
65404;DHT22;52014;52.088;5.096;2023-05-20T01:00:11;13.60;99.90
65404;DHT22;52014;52.088;5.096;2023-05-20T01:02:37;13.60;99.90
65404;DHT22;52014;52.088;5.096;2023-05-20T01:05:03;13.60;99.90
65404;DHT22;52014;52.088;5.096;2023-05-20T01:07:29;13.50;99.90
65404;DHT22;52014;52.088;5.096;2023-05-20T01:09:55;13.60;99.90
65404;DHT22;52014;52.088;5.096;2023-05-20T01:12:28;13.50;99.90
65404;DHT22;52014;52.088;5.096;2023-05-20T01:14:57;13.50;99.90
65404;DHT22;52014;52.088;5.096;2023-05-20T01:17:25;13.50;99.90
65404;DHT22;52014;52.088;5.096;2023-05-20T01:19:51;13.50;99.90
65404;DHT22;52014;52.088;5.096;2023-05-20T01:22:18;13.50;99.90
65404;DHT22;52014;52.088;5.096;2023-05-20T01:24:45;13.40;99.90
65404;DHT22;52014;52.088;5.096;2023-05-20T01:27:12;13.50;99.90
65404;DHT22;52014;52.088;5.096;2023-05-20T01:29:38;13.40;99.90
65404;DHT22;52014;52.088;5.096;2023-05-20T01:32:11;13.50;99.90
65404;DHT22;52014;52.088;5.096;2023-05-20T01:34:39;13.50;99.90
65404;DHT22;52014;52.088;5.096;2023-05-20T01:37:05;13.40;99.90
65404;DHT22;52014;52.088;5.096;2023-05-20T01:39:32;13.40;99.90
65404;DHT22;52014;52.088;5.096;2023-05-20T01:41:58;13.40;99.90
65404;DHT22;52014;52.088;5.096;2023-05-20T01:44:24;13.40;99.90
65404;DHT22;52014;52.088;5.096;2023-05-20T01:46:50;13.30;99.90
65404;DHT22;52014;52.088;5.096;2023-05-20T01:49:15;13.30;99.90
65404;DHT22;52014;52.088;5.096;2023-05-20T01:51:41;13.30;99.90
65404;DHT22;52014;52.088;5.096;2023-05-20T01:54:06;13.30;99.90
65404;DHT22;52014;52.088;5.096;2023-05-20T01:56:32;13.30;99.90
65404;DHT22;52014;52.088;5.096;2023-05-20T01:58:57;13.20;99.90
65404;DHT22;52014;52.088;5.096;2023-05-20T02:01:23;13.20;99.90
65404;DHT22;52014;52.088;5.096;2023-05-20T02:03:48;13.30;99.90
65404;DHT22;52014;52.088;5.096;2023-05-20T02:06:13;13.30;99.90
65404;DHT22;52014;52.088;5.096;2023-05-20T02:08:39;13.20;99.90
65404;DHT22;52014;52.088;5.096;2023-05-20T02:11:04;13.20;99.90
65404;DHT22;52014;52.088;5.096;2023-05-20T02:13:30;13.20;99.90
65404;DHT22;52014;52.088;5.096;2023-05-20T02:15:55;13.10;99.90
65404;DHT22;52014;52.088;5.096;2023-05-20T02:18:21;13.10;99.90
65404;DHT22;52014;52.088;5.096;2023-05-20T02:20:46;13.10;99.90
65404;DHT22;52014;52.088;5.096;2023-05-20T02:23:12;13.10;99.90
65404;DHT22;52014;52.088;5.096;2023-05-20T02:25:37;13.10;99.90
65404;DHT22;52014;52.088;5.096;2023-05-20T02:28:03;13.10;99.90
65404;DHT22;52014;52.088;5.096;2023-05-20T02:30:30;13.10;99.90
65404;DHT22;52014;52.088;5.096;2023-05-20T02:32:55;13.10;99.90
65404;DHT22;52014;52.088;5.096;2023-05-20T02:35:22;13.00;99.90
65404;DHT22;52014;52.088;5.096;2023-05-20T02:37:47;13.10;99.90
65404;DHT22;52014;52.088;5.096;2023-05-20T02:40:13;13.00;99.90
65404;DHT22;52014;52.088;5.096;2023-05-20T02:42:39;13.10;99.90
65404;DHT22;52014;52.088;5.096;2023-05-20T02:45:05;13.00;99.90
65404;DHT22;52014;52.088;5.096;2023-05-20T02:47:30;13.00;99.90
65404;DHT22;52014;52.088;5.096;2023-05-20T02:49:55;13.00;99.90
65404;DHT22;52014;52.088;5.096;2023-05-20T02:52:21;13.00;99.90
65404;DHT22;52014;52.088;5.096;2023-05-20T02:54:46;13.00;99.90
65404;DHT22;52014;52.088;5.096;2023-05-20T02:57:12;13.00;99.90
65404;DHT22;52014;52.088;5.096;2023-05-20T02:59:37;13.00;99.90
65404;DHT22;52014;52.088;5.096;2023-05-20T03:02:03;13.00;99.90
65404;DHT22;52014;52.088;5.096;2023-05-20T03:04:29;13.00;99.90
65404;DHT22;52014;52.088;5.096;2023-05-20T03:06:55;12.90;99.90
65404;DHT22;52014;52.088;5.096;2023-05-20T03:09:22;12.90;99.90
65404;DHT22;52014;52.088;5.096;2023-05-20T03:11:48;12.90;99.90
65404;DHT22;52014;52.088;5.096;2023-05-20T03:14:13;12.90;99.90
65404;DHT22;52014;52.088;5.096;2023-05-20T03:16:39;12.90;99.90
65404;DHT22;52014;52.088;5.096;2023-05-20T03:19:04;12.80;99.90
65404;DHT22;52014;52.088;5.096;2023-05-20T03:21:30;12.80;99.90
65404;DHT22;52014;52.088;5.096;2023-05-20T03:23:56;12.80;99.90
65404;DHT22;52014;52.088;5.096;2023-05-20T03:26:22;12.80;99.90
65404;DHT22;52014;52.088;5.096;2023-05-20T03:28:47;12.80;99.90
65404;DHT22;52014;52.088;5.096;2023-05-20T03:31:13;12.80;99.90
65404;DHT22;52014;52.088;5.096;2023-05-20T03:33:38;12.70;99.90
65404;DHT22;52014;52.088;5.096;2023-05-20T03:36:04;12.80;99.90
65404;DHT22;52014;52.088;5.096;2023-05-20T03:38:30;12.70;99.90
65404;DHT22;52014;52.088;5.096;2023-05-20T03:40:56;12.70;99.90
65404;DHT22;52014;52.088;5.096;2023-05-20T03:43:21;12.70;99.90
65404;DHT22;52014;52.088;5.096;2023-05-20T03:45:47;12.80;99.90
65404;DHT22;52014;52.088;5.096;2023-05-20T03:48:12;12.70;99.90
65404;DHT22;52014;52.088;5.096;2023-05-20T03:50:37;12.70;99.90
65404;DHT22;52014;52.088;5.096;2023-05-20T03:53:03;12.70;99.90
65404;DHT22;52014;52.088;5.096;2023-05-20T03:55:28;12.70;99.90
65404;DHT22;52014;52.088;5.096;2023-05-20T03:57:54;12.70;99.90
65404;DHT22;52014;52.088;5.096;2023-05-20T04:00:19;12.70;99.90
65404;DHT22;52014;52.088;5.096;2023-05-20T04:02:45;12.70;99.90
65404;DHT22;52014;52.088;5.096;2023-05-20T04:05:11;12.70;99.90
65404;DHT22;52014;52.088;5.096;2023-05-20T04:07:36;12.70;99.90
65404;DHT22;52014;52.088;5.096;2023-05-20T04:10:02;12.70;99.90
65404;DHT22;52014;52.088;5.096;2023-05-20T04:12:28;12.70;99.90
65404;DHT22;52014;52.088;5.096;2023-05-20T04:14:58;12.70;99.90
65404;DHT22;52014;52.088;5.096;2023-05-20T04:17:26;12.80;99.90
65404;DHT22;52014;52.088;5.096;2023-05-20T04:19:52;12.80;99.90
65404;DHT22;52014;52.088;5.096;2023-05-20T04:22:17;12.80;99.90
65404;DHT22;52014;52.088;5.096;2023-05-20T04:24:43;12.80;99.90
65404;DHT22;52014;52.088;5.096;2023-05-20T04:27:10;12.80;99.90
65404;DHT22;52014;52.088;5.096;2023-05-20T04:29:35;12.80;99.90
65404;DHT22;52014;52.088;5.096;2023-05-20T04:32:02;12.80;99.90
65404;DHT22;52014;52.088;5.096;2023-05-20T04:34:28;12.80;99.90
65404;DHT22;52014;52.088;5.096;2023-05-20T04:36:53;12.90;99.90
65404;DHT22;52014;52.088;5.096;2023-05-20T04:39:19;12.90;99.90
65404;DHT22;52014;52.088;5.096;2023-05-20T04:41:44;12.90;99.90
65404;DHT22;52014;52.088;5.096;2023-05-20T04:44:12;13.00;99.90
65404;DHT22;52014;52.088;5.096;2023-05-20T04:46:38;13.00;99.90
65404;DHT22;52014;52.088;5.096;2023-05-20T04:49:04;13.00;99.90
65404;DHT22;52014;52.088;5.096;2023-05-20T04:51:29;13.00;99.90
65404;DHT22;52014;52.088;5.096;2023-05-20T04:53:55;13.10;99.90
65404;DHT22;52014;52.088;5.096;2023-05-20T04:56:20;13.10;99.90
65404;DHT22;52014;52.088;5.096;2023-05-20T04:58:46;13.40;99.90
65404;DHT22;52014;52.088;5.096;2023-05-20T05:01:12;13.70;99.90
65404;DHT22;52014;52.088;5.096;2023-05-20T05:03:37;13.90;99.90
65404;DHT22;52014;52.088;5.096;2023-05-20T05:06:03;14.10;99.90
65404;DHT22;52014;52.088;5.096;2023-05-20T05:08:28;14.30;99.90
65404;DHT22;52014;52.088;5.096;2023-05-20T05:10:53;14.40;99.90
65404;DHT22;52014;52.088;5.096;2023-05-20T05:13:19;14.30;99.90
65404;DHT22;52014;52.088;5.096;2023-05-20T05:15:44;14.20;99.90
65404;DHT22;52014;52.088;5.096;2023-05-20T05:18:10;14.20;99.90
65404;DHT22;52014;52.088;5.096;2023-05-20T05:20:35;14.40;99.90
65404;DHT22;52014;52.088;5.096;2023-05-20T05:23:01;14.60;99.90
65404;DHT22;52014;52.088;5.096;2023-05-20T05:25:26;14.70;99.90
65404;DHT22;52014;52.088;5.096;2023-05-20T05:27:52;14.90;99.90
65404;DHT22;52014;52.088;5.096;2023-05-20T05:30:19;15.00;99.90
65404;DHT22;52014;52.088;5.096;2023-05-20T05:32:46;15.10;99.90
65404;DHT22;52014;52.088;5.096;2023-05-20T05:35:11;15.20;99.90
65404;DHT22;52014;52.088;5.096;2023-05-20T05:37:37;15.30;99.90
65404;DHT22;52014;52.088;5.096;2023-05-20T05:40:03;15.50;99.90
65404;DHT22;52014;52.088;5.096;2023-05-20T05:42:28;15.50;99.90
65404;DHT22;52014;52.088;5.096;2023-05-20T05:44:54;15.70;99.90
65404;DHT22;52014;52.088;5.096;2023-05-20T05:47:20;15.80;99.90
65404;DHT22;52014;52.088;5.096;2023-05-20T05:49:45;15.90;99.90
65404;DHT22;52014;52.088;5.096;2023-05-20T05:52:11;16.10;99.90
65404;DHT22;52014;52.088;5.096;2023-05-20T05:54:37;16.20;99.90
65404;DHT22;52014;52.088;5.096;2023-05-20T05:57:02;16.20;99.90
65404;DHT22;52014;52.088;5.096;2023-05-20T05:59:27;16.30;99.90
65404;DHT22;52014;52.088;5.096;2023-05-20T06:01:53;16.40;99.90
65404;DHT22;52014;52.088;5.096;2023-05-20T06:04:18;16.50;99.90
65404;DHT22;52014;52.088;5.096;2023-05-20T06:06:44;16.50;99.90
65404;DHT22;52014;52.088;5.096;2023-05-20T06:09:09;16.60;99.90
65404;DHT22;52014;52.088;5.096;2023-05-20T06:11:35;16.70;99.90
65404;DHT22;52014;52.088;5.096;2023-05-20T06:14:00;16.80;99.90
65404;DHT22;52014;52.088;5.096;2023-05-20T06:16:26;16.90;99.90
65404;DHT22;52014;52.088;5.096;2023-05-20T06:18:51;17.00;99.90
65404;DHT22;52014;52.088;5.096;2023-05-20T06:21:21;17.20;99.90
65404;DHT22;52014;52.088;5.096;2023-05-20T06:23:46;17.30;99.90
65404;DHT22;52014;52.088;5.096;2023-05-20T06:26:12;17.60;99.90
65404;DHT22;52014;52.088;5.096;2023-05-20T06:28:37;17.80;99.90
65404;DHT22;52014;52.088;5.096;2023-05-20T06:31:03;18.20;99.90
65404;DHT22;52014;52.088;5.096;2023-05-20T06:33:28;18.60;99.90
65404;DHT22;52014;52.088;5.096;2023-05-20T06:35:54;18.30;99.90
65404;DHT22;52014;52.088;5.096;2023-05-20T06:38:20;18.80;99.90
65404;DHT22;52014;52.088;5.096;2023-05-20T06:40:46;18.60;99.90
65404;DHT22;52014;52.088;5.096;2023-05-20T06:43:12;18.30;99.90
65404;DHT22;52014;52.088;5.096;2023-05-20T06:45:37;18.10;99.90
65404;DHT22;52014;52.088;5.096;2023-05-20T06:48:03;18.00;99.90
65404;DHT22;52014;52.088;5.096;2023-05-20T06:50:28;18.00;99.90
65404;DHT22;52014;52.088;5.096;2023-05-20T06:52:54;18.10;99.90
65404;DHT22;52014;52.088;5.096;2023-05-20T06:55:19;18.00;99.90
65404;DHT22;52014;52.088;5.096;2023-05-20T06:57:45;18.10;99.90
65404;DHT22;52014;52.088;5.096;2023-05-20T07:00:11;18.00;99.90
65404;DHT22;52014;52.088;5.096;2023-05-20T07:02:37;18.10;99.90
65404;DHT22;52014;52.088;5.096;2023-05-20T07:05:03;18.00;99.90
65404;DHT22;52014;52.088;5.096;2023-05-20T07:07:28;18.00;99.90
65404;DHT22;52014;52.088;5.096;2023-05-20T07:09:54;18.10;99.90
65404;DHT22;52014;52.088;5.096;2023-05-20T07:12:19;18.30;99.90
65404;DHT22;52014;52.088;5.096;2023-05-20T07:14:45;18.50;99.90
65404;DHT22;52014;52.088;5.096;2023-05-20T07:17:10;18.60;99.90
65404;DHT22;52014;52.088;5.096;2023-05-20T07:19:36;18.80;99.90
65404;DHT22;52014;52.088;5.096;2023-05-20T07:22:01;18.80;99.90
65404;DHT22;52014;52.088;5.096;2023-05-20T07:24:26;18.90;99.90
65404;DHT22;52014;52.088;5.096;2023-05-20T07:26:52;18.80;99.90
65404;DHT22;52014;52.088;5.096;2023-05-20T07:29:17;18.70;99.90
65404;DHT22;52014;52.088;5.096;2023-05-20T07:31:43;18.90;99.90
65404;DHT22;52014;52.088;5.096;2023-05-20T07:34:08;19.00;99.90
65404;DHT22;52014;52.088;5.096;2023-05-20T07:36:34;19.10;99.90
65404;DHT22;52014;52.088;5.096;2023-05-20T07:38:59;19.20;99.90
65404;DHT22;52014;52.088;5.096;2023-05-20T07:41:25;19.40;99.90
65404;DHT22;52014;52.088;5.096;2023-05-20T07:43:50;19.60;99.90
65404;DHT22;52014;52.088;5.096;2023-05-20T07:46:16;19.50;99.90
65404;DHT22;52014;52.088;5.096;2023-05-20T07:48:41;19.60;99.90
65404;DHT22;52014;52.088;5.096;2023-05-20T07:51:07;19.60;99.90
65404;DHT22;52014;52.088;5.096;2023-05-20T07:53:33;19.60;99.90
65404;DHT22;52014;52.088;5.096;2023-05-20T07:55:58;19.60;99.90
65404;DHT22;52014;52.088;5.096;2023-05-20T07:58:24;19.90;99.90
65404;DHT22;52014;52.088;5.096;2023-05-20T08:00:49;20.00;99.90
65404;DHT22;52014;52.088;5.096;2023-05-20T08:03:15;20.00;99.90
65404;DHT22;52014;52.088;5.096;2023-05-20T08:05:41;20.20;99.90
65404;DHT22;52014;52.088;5.096;2023-05-20T08:08:06;20.30;99.90
65404;DHT22;52014;52.088;5.096;2023-05-20T08:10:34;20.30;99.90
65404;DHT22;52014;52.088;5.096;2023-05-20T08:13:00;20.30;99.90
65404;DHT22;52014;52.088;5.096;2023-05-20T08:15:25;20.30;99.90
65404;DHT22;52014;52.088;5.096;2023-05-20T08:17:50;20.50;99.90
65404;DHT22;52014;52.088;5.096;2023-05-20T08:20:16;20.50;99.90
65404;DHT22;52014;52.088;5.096;2023-05-20T08:22:42;20.50;99.90
65404;DHT22;52014;52.088;5.096;2023-05-20T08:25:08;20.50;99.90
65404;DHT22;52014;52.088;5.096;2023-05-20T08:27:34;20.60;99.90
65404;DHT22;52014;52.088;5.096;2023-05-20T08:30:00;20.60;99.90
65404;DHT22;52014;52.088;5.096;2023-05-20T08:32:25;20.70;99.90
65404;DHT22;52014;52.088;5.096;2023-05-20T08:34:51;20.70;99.90
65404;DHT22;52014;52.088;5.096;2023-05-20T08:37:16;20.60;99.90
65404;DHT22;52014;52.088;5.096;2023-05-20T08:39:42;20.60;99.90
65404;DHT22;52014;52.088;5.096;2023-05-20T08:42:09;20.60;99.90
65404;DHT22;52014;52.088;5.096;2023-05-20T08:44:37;20.80;99.90
65404;DHT22;52014;52.088;5.096;2023-05-20T08:47:03;20.80;99.90
65404;DHT22;52014;52.088;5.096;2023-05-20T08:49:30;20.80;99.90
65404;DHT22;52014;52.088;5.096;2023-05-20T08:51:56;20.80;99.90
65404;DHT22;52014;52.088;5.096;2023-05-20T08:54:22;20.90;99.90
65404;DHT22;52014;52.088;5.096;2023-05-20T08:56:48;21.10;99.90
65404;DHT22;52014;52.088;5.096;2023-05-20T08:59:13;21.20;99.90
65404;DHT22;52014;52.088;5.096;2023-05-20T09:01:40;21.00;99.90
65404;DHT22;52014;52.088;5.096;2023-05-20T09:04:07;20.90;99.90
65404;DHT22;52014;52.088;5.096;2023-05-20T09:06:41;20.80;99.90
65404;DHT22;52014;52.088;5.096;2023-05-20T09:09:06;20.70;99.90
65404;DHT22;52014;52.088;5.096;2023-05-20T09:11:32;20.60;99.90
65404;DHT22;52014;52.088;5.096;2023-05-20T09:13:58;20.60;99.90
65404;DHT22;52014;52.088;5.096;2023-05-20T09:16:24;20.90;99.90
65404;DHT22;52014;52.088;5.096;2023-05-20T09:18:53;20.90;99.90
65404;DHT22;52014;52.088;5.096;2023-05-20T09:21:18;20.60;99.90
65404;DHT22;52014;52.088;5.096;2023-05-20T09:23:48;20.60;99.90
65404;DHT22;52014;52.088;5.096;2023-05-20T09:26:16;20.60;99.90
65404;DHT22;52014;52.088;5.096;2023-05-20T09:28:41;20.70;99.90
65404;DHT22;52014;52.088;5.096;2023-05-20T09:31:07;20.80;99.90
65404;DHT22;52014;52.088;5.096;2023-05-20T09:33:33;20.30;99.90
65404;DHT22;52014;52.088;5.096;2023-05-20T09:36:03;20.00;99.90
65404;DHT22;52014;52.088;5.096;2023-05-20T09:38:30;20.30;99.90
65404;DHT22;52014;52.088;5.096;2023-05-20T09:41:06;20.30;99.90
65404;DHT22;52014;52.088;5.096;2023-05-20T09:43:33;20.10;99.90
65404;DHT22;52014;52.088;5.096;2023-05-20T09:45:59;19.90;99.90
65404;DHT22;52014;52.088;5.096;2023-05-20T09:48:26;19.80;99.90
65404;DHT22;52014;52.088;5.096;2023-05-20T09:50:52;19.90;99.90
65404;DHT22;52014;52.088;5.096;2023-05-20T09:53:19;19.70;99.90
65404;DHT22;52014;52.088;5.096;2023-05-20T09:55:45;19.60;99.90
65404;DHT22;52014;52.088;5.096;2023-05-20T09:58:10;20.10;99.90
65404;DHT22;52014;52.088;5.096;2023-05-20T10:00:37;20.30;99.90
65404;DHT22;52014;52.088;5.096;2023-05-20T10:03:02;20.00;99.90
65404;DHT22;52014;52.088;5.096;2023-05-20T10:05:43;19.70;99.90
65404;DHT22;52014;52.088;5.096;2023-05-20T10:10:43;19.80;99.90
65404;DHT22;52014;52.088;5.096;2023-05-20T10:16:06;20.20;99.90
65404;DHT22;52014;52.088;5.096;2023-05-20T10:21:19;20.80;99.90
65404;DHT22;52014;52.088;5.096;2023-05-20T10:23:46;20.40;99.90
65404;DHT22;52014;52.088;5.096;2023-05-20T10:26:12;20.40;99.90
65404;DHT22;52014;52.088;5.096;2023-05-20T10:28:38;20.80;99.90
65404;DHT22;52014;52.088;5.096;2023-05-20T10:31:17;20.80;99.90
65404;DHT22;52014;52.088;5.096;2023-05-20T10:33:43;20.60;99.90
65404;DHT22;52014;52.088;5.096;2023-05-20T10:36:09;20.50;99.90
65404;DHT22;52014;52.088;5.096;2023-05-20T10:38:35;20.50;99.90
65404;DHT22;52014;52.088;5.096;2023-05-20T10:41:07;20.80;99.90
65404;DHT22;52014;52.088;5.096;2023-05-20T10:43:33;21.20;99.90
65404;DHT22;52014;52.088;5.096;2023-05-20T10:45:58;21.30;99.90
65404;DHT22;52014;52.088;5.096;2023-05-20T10:48:27;21.50;99.90
65404;DHT22;52014;52.088;5.096;2023-05-20T10:50:54;21.80;99.90
65404;DHT22;52014;52.088;5.096;2023-05-20T10:53:21;21.80;99.90
65404;DHT22;52014;52.088;5.096;2023-05-20T10:55:47;21.90;99.90
65404;DHT22;52014;52.088;5.096;2023-05-20T10:58:16;21.90;99.90
65404;DHT22;52014;52.088;5.096;2023-05-20T11:00:42;21.70;99.90
65404;DHT22;52014;52.088;5.096;2023-05-20T11:03:08;21.50;99.90
65404;DHT22;52014;52.088;5.096;2023-05-20T11:05:33;21.60;99.90
65404;DHT22;52014;52.088;5.096;2023-05-20T11:08:00;21.50;99.90
65404;DHT22;52014;52.088;5.096;2023-05-20T11:10:26;21.30;99.90
65404;DHT22;52014;52.088;5.096;2023-05-20T11:12:51;21.40;99.90
65404;DHT22;52014;52.088;5.096;2023-05-20T11:15:17;21.60;99.90
65404;DHT22;52014;52.088;5.096;2023-05-20T11:17:56;21.40;99.90
65404;DHT22;52014;52.088;5.096;2023-05-20T11:20:22;21.40;99.90
65404;DHT22;52014;52.088;5.096;2023-05-20T11:22:51;21.30;99.90
65404;DHT22;52014;52.088;5.096;2023-05-20T11:25:17;21.40;99.90
65404;DHT22;52014;52.088;5.096;2023-05-20T11:27:43;21.40;99.90
65404;DHT22;52014;52.088;5.096;2023-05-20T11:30:09;21.00;99.90
65404;DHT22;52014;52.088;5.096;2023-05-20T11:32:35;20.70;99.90
65404;DHT22;52014;52.088;5.096;2023-05-20T11:35:01;20.40;99.90
65404;DHT22;52014;52.088;5.096;2023-05-20T11:37:27;20.40;99.90
65404;DHT22;52014;52.088;5.096;2023-05-20T11:40:05;20.70;99.90
65404;DHT22;52014;52.088;5.096;2023-05-20T11:42:35;20.90;99.90
65404;DHT22;52014;52.088;5.096;2023-05-20T11:45:00;21.10;99.90
65404;DHT22;52014;52.088;5.096;2023-05-20T11:47:26;21.10;99.90
65404;DHT22;52014;52.088;5.096;2023-05-20T11:49:51;21.10;99.90
65404;DHT22;52014;52.088;5.096;2023-05-20T11:52:17;21.20;99.90
65404;DHT22;52014;52.088;5.096;2023-05-20T11:54:43;21.10;99.90
65404;DHT22;52014;52.088;5.096;2023-05-20T11:57:10;21.00;99.90
65404;DHT22;52014;52.088;5.096;2023-05-20T11:59:35;21.10;99.90
65404;DHT22;52014;52.088;5.096;2023-05-20T12:02:01;21.00;99.90
65404;DHT22;52014;52.088;5.096;2023-05-20T12:04:26;20.90;99.90
65404;DHT22;52014;52.088;5.096;2023-05-20T12:06:52;20.60;99.90
65404;DHT22;52014;52.088;5.096;2023-05-20T12:09:17;20.60;99.90
65404;DHT22;52014;52.088;5.096;2023-05-20T12:11:43;20.60;99.90
65404;DHT22;52014;52.088;5.096;2023-05-20T12:14:09;20.50;99.90
65404;DHT22;52014;52.088;5.096;2023-05-20T12:16:35;20.60;99.90
65404;DHT22;52014;52.088;5.096;2023-05-20T12:19:01;20.60;99.90
65404;DHT22;52014;52.088;5.096;2023-05-20T12:21:28;20.50;99.90
65404;DHT22;52014;52.088;5.096;2023-05-20T12:23:53;20.60;99.90
65404;DHT22;52014;52.088;5.096;2023-05-20T12:26:22;20.60;99.90
65404;DHT22;52014;52.088;5.096;2023-05-20T12:28:48;20.70;99.90
65404;DHT22;52014;52.088;5.096;2023-05-20T12:31:13;20.60;99.90
65404;DHT22;52014;52.088;5.096;2023-05-20T12:33:39;20.60;99.90
65404;DHT22;52014;52.088;5.096;2023-05-20T12:36:04;20.70;99.90
65404;DHT22;52014;52.088;5.096;2023-05-20T12:38:30;20.80;99.90
65404;DHT22;52014;52.088;5.096;2023-05-20T12:40:55;20.80;99.90
65404;DHT22;52014;52.088;5.096;2023-05-20T12:43:21;20.80;99.90
65404;DHT22;52014;52.088;5.096;2023-05-20T12:45:46;20.90;99.90
65404;DHT22;52014;52.088;5.096;2023-05-20T12:48:12;20.90;99.90
65404;DHT22;52014;52.088;5.096;2023-05-20T12:50:37;20.80;99.90
65404;DHT22;52014;52.088;5.096;2023-05-20T12:53:02;20.60;99.90
65404;DHT22;52014;52.088;5.096;2023-05-20T12:55:28;20.60;99.90
65404;DHT22;52014;52.088;5.096;2023-05-20T12:57:53;20.50;99.90
65404;DHT22;52014;52.088;5.096;2023-05-20T13:00:19;20.50;99.90
65404;DHT22;52014;52.088;5.096;2023-05-20T13:02:45;20.60;99.90
65404;DHT22;52014;52.088;5.096;2023-05-20T13:05:10;20.60;99.90
65404;DHT22;52014;52.088;5.096;2023-05-20T13:07:36;20.50;99.90
65404;DHT22;52014;52.088;5.096;2023-05-20T13:10:02;20.50;99.90
65404;DHT22;52014;52.088;5.096;2023-05-20T13:12:27;20.50;99.90
65404;DHT22;52014;52.088;5.096;2023-05-20T13:14:53;20.50;99.90
65404;DHT22;52014;52.088;5.096;2023-05-20T13:17:18;20.50;99.90
65404;DHT22;52014;52.088;5.096;2023-05-20T13:19:43;20.60;99.90
65404;DHT22;52014;52.088;5.096;2023-05-20T13:22:10;20.60;99.90
65404;DHT22;52014;52.088;5.096;2023-05-20T13:24:36;20.60;99.90
65404;DHT22;52014;52.088;5.096;2023-05-20T13:27:01;20.60;99.90
65404;DHT22;52014;52.088;5.096;2023-05-20T13:29:27;20.50;99.90
65404;DHT22;52014;52.088;5.096;2023-05-20T13:31:52;20.60;99.90
65404;DHT22;52014;52.088;5.096;2023-05-20T13:34:18;20.60;99.90
65404;DHT22;52014;52.088;5.096;2023-05-20T13:36:44;20.60;99.90
65404;DHT22;52014;52.088;5.096;2023-05-20T13:39:09;20.70;99.90
65404;DHT22;52014;52.088;5.096;2023-05-20T13:41:35;20.70;99.90
65404;DHT22;52014;52.088;5.096;2023-05-20T13:44:00;20.70;99.90
65404;DHT22;52014;52.088;5.096;2023-05-20T13:46:26;20.60;99.90
65404;DHT22;52014;52.088;5.096;2023-05-20T13:48:52;20.60;99.90
65404;DHT22;52014;52.088;5.096;2023-05-20T13:51:17;20.70;99.90
65404;DHT22;52014;52.088;5.096;2023-05-20T13:53:43;20.70;99.90
65404;DHT22;52014;52.088;5.096;2023-05-20T13:56:08;20.70;99.90
65404;DHT22;52014;52.088;5.096;2023-05-20T13:58:34;20.60;99.90
65404;DHT22;52014;52.088;5.096;2023-05-20T14:01:00;20.60;99.90
65404;DHT22;52014;52.088;5.096;2023-05-20T14:03:26;20.60;99.90
65404;DHT22;52014;52.088;5.096;2023-05-20T14:05:51;20.60;99.90
65404;DHT22;52014;52.088;5.096;2023-05-20T14:08:17;20.60;99.90
65404;DHT22;52014;52.088;5.096;2023-05-20T14:10:42;20.60;99.90
65404;DHT22;52014;52.088;5.096;2023-05-20T14:13:08;20.60;99.90
65404;DHT22;52014;52.088;5.096;2023-05-20T14:15:35;20.70;99.90
65404;DHT22;52014;52.088;5.096;2023-05-20T14:18:00;20.60;99.90
65404;DHT22;52014;52.088;5.096;2023-05-20T14:20:25;20.60;99.90
65404;DHT22;52014;52.088;5.096;2023-05-20T14:22:51;20.60;99.90
65404;DHT22;52014;52.088;5.096;2023-05-20T14:25:17;20.70;99.90
65404;DHT22;52014;52.088;5.096;2023-05-20T14:27:42;20.70;99.90
65404;DHT22;52014;52.088;5.096;2023-05-20T14:30:08;20.80;99.90
65404;DHT22;52014;52.088;5.096;2023-05-20T14:32:33;20.80;99.90
65404;DHT22;52014;52.088;5.096;2023-05-20T14:34:59;20.80;99.90
65404;DHT22;52014;52.088;5.096;2023-05-20T14:37:24;20.70;99.90
65404;DHT22;52014;52.088;5.096;2023-05-20T14:39:52;20.80;99.90
65404;DHT22;52014;52.088;5.096;2023-05-20T14:42:18;20.90;99.90
65404;DHT22;52014;52.088;5.096;2023-05-20T14:44:43;21.00;99.90
65404;DHT22;52014;52.088;5.096;2023-05-20T14:47:09;21.00;99.90
65404;DHT22;52014;52.088;5.096;2023-05-20T14:49:36;21.00;99.90
65404;DHT22;52014;52.088;5.096;2023-05-20T14:52:04;20.80;99.90
65404;DHT22;52014;52.088;5.096;2023-05-20T14:54:29;20.70;99.90
65404;DHT22;52014;52.088;5.096;2023-05-20T14:56:55;20.70;99.90
65404;DHT22;52014;52.088;5.096;2023-05-20T14:59:20;20.60;99.90
65404;DHT22;52014;52.088;5.096;2023-05-20T15:01:45;20.70;99.90
65404;DHT22;52014;52.088;5.096;2023-05-20T15:04:11;20.60;99.90
65404;DHT22;52014;52.088;5.096;2023-05-20T15:06:37;20.60;99.90
65404;DHT22;52014;52.088;5.096;2023-05-20T15:09:03;20.60;99.90
65404;DHT22;52014;52.088;5.096;2023-05-20T15:11:29;20.60;99.90
65404;DHT22;52014;52.088;5.096;2023-05-20T15:13:54;20.50;99.90
65404;DHT22;52014;52.088;5.096;2023-05-20T15:16:20;20.60;99.90
65404;DHT22;52014;52.088;5.096;2023-05-20T15:18:48;20.60;99.90
65404;DHT22;52014;52.088;5.096;2023-05-20T15:21:14;20.60;99.90
65404;DHT22;52014;52.088;5.096;2023-05-20T15:23:39;20.60;99.90
65404;DHT22;52014;52.088;5.096;2023-05-20T15:26:05;20.60;99.90
65404;DHT22;52014;52.088;5.096;2023-05-20T15:28:30;20.60;99.90
65404;DHT22;52014;52.088;5.096;2023-05-20T15:30:56;20.50;99.90